Time;durP1;ratioP1;P1;durP2;ratioP2;P2;SDS_P1;SDS_P2;PMS_P1;PMS_P2;Temp;Humidity;BMP_temperature;BMP_pressure;BME280_temperature;BME280_humidity;BME280_pressure;Samples;Min_cycle;Max_cycle;Signal;HPM_P1;HPM_P2
2021/03/24 00:01:33;;;;;;;15.55;7.93;;;6.60;99.90;;;;;;5094589;28;20031;-37
2021/03/24 00:03:59;;;;;;;13.35;7.95;;;6.60;99.90;;;;;;5094762;28;20402;-37
2021/03/24 00:06:24;;;;;;;15.02;7.35;;;6.60;99.90;;;;;;5094582;28;20036;-37
2021/03/24 00:08:50;;;;;;;13.48;7.68;;;6.60;99.90;;;;;;5094744;28;20035;-38
2021/03/24 00:11:16;;;;;;;14.70;7.72;;;6.60;99.90;;;;;;5093355;28;20443;-37
2021/03/24 00:13:42;;;;;;;16.98;9.30;;;6.60;99.90;;;;;;5094555;28;20104;-37
2021/03/24 00:16:10;;;;;;;20.13;9.73;;;6.60;99.90;;;;;;5094076;28;20100;-37
2021/03/24 00:18:36;;;;;;;13.10;8.52;;;6.60;99.90;;;;;;5094522;28;20372;-38
2021/03/24 00:21:02;;;;;;;18.98;9.15;;;6.60;99.90;;;;;;5094272;28;20112;-38
2021/03/24 00:23:27;;;;;;;22.35;10.98;;;6.50;99.90;;;;;;5080870;28;20521;-37
2021/03/24 00:25:53;;;;;;;15.85;9.00;;;6.50;99.90;;;;;;5093315;28;20036;-37
2021/03/24 00:28:19;;;;;;;15.68;9.25;;;6.40;99.90;;;;;;5093978;28;20020;-37
2021/03/24 00:30:47;;;;;;;19.85;9.95;;;6.40;99.90;;;;;;5094004;28;20055;-37
2021/03/24 00:33:17;;;;;;;17.23;8.98;;;6.40;99.90;;;;;;5079606;28;20091;-39
2021/03/24 00:35:42;;;;;;;15.15;8.52;;;6.40;99.90;;;;;;5094149;28;20140;-37
2021/03/24 00:38:09;;;;;;;20.13;10.25;;;6.40;99.90;;;;;;5094299;28;20054;-38
2021/03/24 00:40:40;;;;;;;16.10;9.02;;;6.40;99.90;;;;;;5092737;28;20032;-37
2021/03/24 00:43:06;;;;;;;12.13;7.93;;;6.40;99.90;;;;;;5093970;28;20020;-37
2021/03/24 00:45:37;;;;;;;14.18;7.53;;;6.40;99.90;;;;;;5093728;28;20428;-37
2021/03/24 00:48:04;;;;;;;15.77;7.57;;;6.40;99.90;;;;;;5094003;28;20451;-38
2021/03/24 00:50:33;;;;;;;15.65;9.02;;;6.40;99.90;;;;;;5094137;28;20043;-37
2021/03/24 00:52:58;;;;;;;12.88;7.90;;;6.40;99.90;;;;;;5093936;28;20059;-37
2021/03/24 00:55:24;;;;;;;15.07;7.55;;;6.40;99.90;;;;;;5092611;28;20033;-37
2021/03/24 00:57:50;;;;;;;19.08;8.82;;;6.40;99.90;;;;;;5094001;28;20050;-38
2021/03/24 01:00:18;;;;;;;15.27;8.02;;;6.40;99.90;;;;;;5093797;28;20472;-37
2021/03/24 01:02:43;;;;;;;16.23;9.00;;;6.40;99.90;;;;;;5093463;28;20042;-37
2021/03/24 01:05:12;;;;;;;20.98;9.38;;;6.40;99.90;;;;;;5093555;28;20741;-37
2021/03/24 01:07:37;;;;;;;13.07;8.23;;;6.40;99.90;;;;;;5093524;28;20020;-38
2021/03/24 01:10:06;;;;;;;13.65;7.55;;;6.40;99.90;;;;;;5092748;28;20027;-38
2021/03/24 01:12:31;;;;;;;13.52;7.68;;;6.40;99.90;;;;;;5093227;28;20112;-38
2021/03/24 01:14:57;;;;;;;15.02;7.78;;;6.40;99.90;;;;;;5093081;28;20496;-38
2021/03/24 01:17:22;;;;;;;13.25;7.82;;;6.40;99.90;;;;;;5092944;28;20021;-37
2021/03/24 01:19:48;;;;;;;15.98;8.80;;;6.40;99.90;;;;;;5093444;28;20024;-37
2021/03/24 01:22:13;;;;;;;13.68;7.43;;;6.40;99.90;;;;;;5093256;28;20486;-39
2021/03/24 01:24:39;;;;;;;14.52;9.15;;;6.40;99.90;;;;;;5092212;28;20085;-37
2021/03/24 01:27:05;;;;;;;14.10;7.57;;;6.40;99.90;;;;;;5093166;28;20101;-39
2021/03/24 01:29:30;;;;;;;14.32;8.10;;;6.40;99.90;;;;;;5092989;28;20023;-37
2021/03/24 01:31:56;;;;;;;14.57;8.45;;;6.40;99.90;;;;;;5093018;28;20032;-38
2021/03/24 01:34:21;;;;;;;17.15;9.20;;;6.40;99.90;;;;;;5092915;28;20386;-37
2021/03/24 01:36:47;;;;;;;14.88;9.23;;;6.40;99.90;;;;;;5092952;28;20229;-40
2021/03/24 01:39:12;;;;;;;14.93;9.40;;;6.40;99.90;;;;;;5092240;28;20385;-39
2021/03/24 01:41:38;;;;;;;12.60;7.63;;;6.40;99.90;;;;;;5092352;28;20028;-37
2021/03/24 01:44:04;;;;;;;16.17;8.60;;;6.40;99.90;;;;;;5092549;28;20044;-38
2021/03/24 01:46:42;;;;;;;11.48;7.20;;;6.40;99.90;;;;;;5092489;28;20039;-38
2021/03/24 01:49:16;;;;;;;16.70;8.57;;;6.40;99.90;;;;;;5092740;28;20035;-38
2021/03/24 01:51:52;;;;;;;14.02;7.95;;;6.40;99.90;;;;;;5093484;28;20028;-37
2021/03/24 01:54:36;;;;;;;15.38;9.00;;;6.40;99.90;;;;;;5091728;28;20024;-37
2021/03/24 01:57:07;;;;;;;15.30;8.63;;;6.40;99.90;;;;;;5092544;28;20489;-37
2021/03/24 01:59:34;;;;;;;11.38;7.80;;;6.40;99.90;;;;;;5092472;28;20032;-38
2021/03/24 02:02:00;;;;;;;12.95;7.78;;;6.40;99.90;;;;;;5092136;28;20032;-38
2021/03/24 02:04:26;;;;;;;15.73;8.02;;;6.40;99.90;;;;;;5072820;28;20024;-37
2021/03/24 02:07:20;;;;;;;15.90;8.23;;;6.40;99.90;;;;;;5072945;28;20029;-37
2021/03/24 02:10:07;;;;;;;13.43;8.30;;;6.40;99.90;;;;;;5076268;28;20050;-37
2021/03/24 02:12:49;;;;;;;13.35;7.82;;;6.40;99.90;;;;;;5113292;28;20437;-38
2021/03/24 02:15:31;;;;;;;13.15;7.25;;;6.40;99.90;;;;;;5113567;28;20681;-38
2021/03/24 02:17:59;;;;;;;15.20;7.80;;;6.40;99.90;;;;;;5113625;28;20462;-37
2021/03/24 02:20:55;;;;;;;10.38;7.30;;;6.40;99.90;;;;;;5113527;28;20034;-37
2021/03/24 02:23:30;;;;;;;14.15;7.82;;;6.40;99.90;;;;;;5113123;28;20383;-37
2021/03/24 02:26:17;;;;;;;15.65;8.73;;;6.40;99.90;;;;;;5112764;28;20031;-37
2021/03/24 02:28:45;;;;;;;13.20;8.35;;;6.40;99.90;;;;;;5113347;28;20016;-39
2021/03/24 02:31:14;;;;;;;16.58;7.70;;;6.30;99.90;;;;;;5113223;28;20030;-37
2021/03/24 02:33:42;;;;;;;14.45;8.27;;;6.30;99.90;;;;;;5113190;28;20023;-37
2021/03/24 02:36:16;;;;;;;15.75;8.05;;;6.30;99.90;;;;;;5113253;28;20104;-37
2021/03/24 02:38:44;;;;;;;13.85;8.00;;;6.30;99.90;;;;;;5112972;28;20061;-38
2021/03/24 02:41:11;;;;;;;14.73;7.53;;;6.30;99.90;;;;;;5112008;28;20034;-39
2021/03/24 02:43:37;;;;;;;16.83;8.40;;;6.30;99.90;;;;;;5112793;28;20051;-37
2021/03/24 02:46:05;;;;;;;14.25;8.80;;;6.30;99.90;;;;;;5113063;28;20027;-38
2021/03/24 02:48:34;;;;;;;18.75;7.43;;;6.30;99.90;;;;;;5113148;28;20493;-38
2021/03/24 02:51:04;;;;;;;15.23;7.60;;;6.30;99.90;;;;;;5112998;28;20046;-37
2021/03/24 02:53:31;;;;;;;11.88;6.82;;;6.30;99.90;;;;;;5112981;28;20106;-37
2021/03/24 02:56:01;;;;;;;17.08;8.10;;;6.30;99.90;;;;;;5110741;28;20437;-37
2021/03/24 02:58:27;;;;;;;14.55;7.20;;;6.30;99.90;;;;;;5112879;28;20437;-37
2021/03/24 03:00:54;;;;;;;16.77;6.80;;;6.30;99.90;;;;;;5112961;28;20051;-37
2021/03/24 03:03:25;;;;;;;12.02;6.90;;;6.30;99.90;;;;;;5112726;28;20089;-37
2021/03/24 03:05:55;;;;;;;14.00;7.68;;;6.30;99.90;;;;;;5112903;28;20115;-38
2021/03/24 03:08:55;;;;;;;13.18;7.82;;;6.30;99.90;;;;;;5112694;28;20026;-37
2021/03/24 03:11:41;;;;;;;15.05;8.43;;;6.30;99.90;;;;;;5078244;28;20044;-38
2021/03/24 03:14:40;;;;;;;17.65;7.10;;;6.30;99.90;;;;;;5112991;28;20099;-38
2021/03/24 03:17:14;;;;;;;13.07;7.13;;;6.30;99.90;;;;;;5112719;28;20027;-38
2021/03/24 03:19:44;;;;;;;12.93;5.97;;;6.20;99.90;;;;;;5112529;28;20055;-38
2021/03/24 03:22:25;;;;;;;14.20;6.55;;;6.20;99.90;;;;;;5112447;28;20020;-37
2021/03/24 03:24:55;;;;;;;13.13;7.57;;;6.20;99.90;;;;;;5111671;28;20535;-37
2021/03/24 03:27:24;;;;;;;13.02;6.88;;;6.20;99.90;;;;;;5112546;28;20031;-40
2021/03/24 03:29:52;;;;;;;11.57;7.15;;;6.20;99.90;;;;;;5112706;28;20547;-39
2021/03/24 03:32:20;;;;;;;12.30;6.53;;;6.20;99.90;;;;;;5112541;28;20027;-37
2021/03/24 03:34:49;;;;;;;12.50;6.90;;;6.20;99.90;;;;;;5112657;28;20020;-37
2021/03/24 03:37:15;;;;;;;14.43;7.57;;;6.20;99.90;;;;;;5112553;28;20072;-37
2021/03/24 03:39:45;;;;;;;14.15;8.18;;;6.20;99.90;;;;;;5111600;28;20466;-38
2021/03/24 03:42:11;;;;;;;14.85;7.50;;;6.20;99.90;;;;;;5112181;28;20053;-37
2021/03/24 03:44:37;;;;;;;12.52;7.75;;;6.20;99.90;;;;;;5112338;28;20585;-37
2021/03/24 03:47:09;;;;;;;12.32;7.00;;;6.20;99.90;;;;;;5112205;28;20103;-37
2021/03/24 03:49:37;;;;;;;16.05;7.65;;;6.20;99.90;;;;;;5112488;28;20080;-37
2021/03/24 03:52:46;;;;;;;11.98;7.10;;;6.20;99.90;;;;;;5112056;28;20039;-37
2021/03/24 03:55:42;;;;;;;11.98;6.40;;;6.20;99.90;;;;;;5111501;28;20415;-38
2021/03/24 03:58:18;;;;;;;13.65;7.20;;;6.20;99.90;;;;;;5112349;28;20015;-37
2021/03/24 04:00:59;;;;;;;16.77;6.97;;;6.10;99.90;;;;;;5112447;28;20023;-38
2021/03/24 04:03:38;;;;;;;14.00;7.53;;;6.20;99.90;;;;;;5112148;28;20373;-37
2021/03/24 04:06:10;;;;;;;11.93;7.35;;;6.20;99.90;;;;;;5111961;28;20106;-37
2021/03/24 04:08:37;;;;;;;11.73;7.05;;;6.20;99.90;;;;;;5112774;28;20115;-37
2021/03/24 04:11:08;;;;;;;13.52;7.68;;;6.10;99.90;;;;;;5114887;28;20023;-37
2021/03/24 04:13:40;;;;;;;13.77;7.20;;;6.10;99.90;;;;;;5115645;28;20024;-37
2021/03/24 04:16:06;;;;;;;14.43;7.85;;;6.10;99.90;;;;;;5115692;28;20077;-40
2021/03/24 04:18:40;;;;;;;11.88;6.97;;;6.10;99.90;;;;;;5115997;27;20035;-37
2021/03/24 04:21:09;;;;;;;15.43;7.55;;;6.10;99.90;;;;;;5116024;28;20441;-37
2021/03/24 04:23:39;;;;;;;18.23;8.13;;;6.10;99.90;;;;;;5115706;28;20098;-37
2021/03/24 04:26:23;;;;;;;12.80;7.35;;;6.10;99.90;;;;;;5114870;28;20028;-38
2021/03/24 04:28:55;;;;;;;13.27;6.85;;;6.10;99.90;;;;;;5115474;28;20179;-38
2021/03/24 04:31:25;;;;;;;13.57;6.93;;;6.00;99.90;;;;;;5115411;28;20024;-38
2021/03/24 04:33:51;;;;;;;14.38;7.18;;;6.00;99.90;;;;;;5115330;28;20023;-38
2021/03/24 04:36:40;;;;;;;11.55;6.72;;;6.00;99.90;;;;;;5115541;28;20119;-37
2021/03/24 04:39:28;;;;;;;13.55;7.18;;;6.00;99.90;;;;;;5115283;28;20411;-38
2021/03/24 04:41:57;;;;;;;16.90;7.35;;;6.00;99.90;;;;;;5115535;28;20059;-37
2021/03/24 04:44:29;;;;;;;12.98;7.55;;;6.00;99.90;;;;;;5115242;28;20058;-38
2021/03/24 04:47:09;;;;;;;11.05;6.38;;;6.00;99.90;;;;;;5115333;28;20069;-38
2021/03/24 04:49:51;;;;;;;14.85;7.68;;;6.00;99.90;;;;;;5115315;28;20031;-38
2021/03/24 04:52:18;;;;;;;11.93;7.20;;;6.00;99.90;;;;;;5115037;28;20020;-37
2021/03/24 04:54:45;;;;;;;15.18;7.47;;;6.00;99.90;;;;;;5114169;28;20111;-38
2021/03/24 04:57:18;;;;;;;16.60;7.82;;;5.90;99.90;;;;;;5115183;28;20016;-37
2021/03/24 04:59:48;;;;;;;17.75;7.82;;;5.90;99.90;;;;;;5115122;28;20016;-37
2021/03/24 05:02:26;;;;;;;14.30;6.72;;;5.90;99.90;;;;;;5113841;28;20063;-37
2021/03/24 05:05:02;;;;;;;12.27;6.82;;;5.90;99.90;;;;;;5115044;28;20065;-37
2021/03/24 05:07:43;;;;;;;11.32;7.13;;;5.90;99.90;;;;;;5115026;28;20026;-37
2021/03/24 05:10:18;;;;;;;13.88;7.07;;;5.90;99.90;;;;;;5105002;28;20039;-37
2021/03/24 05:12:49;;;;;;;12.23;6.60;;;5.90;99.90;;;;;;5092842;28;20028;-37
2021/03/24 05:15:21;;;;;;;13.38;7.43;;;5.90;99.90;;;;;;5093447;28;20030;-37
2021/03/24 05:17:48;;;;;;;13.35;6.68;;;5.90;99.90;;;;;;5093985;28;20394;-38
2021/03/24 05:20:41;;;;;;;12.20;6.75;;;5.90;99.90;;;;;;5093285;28;20031;-37
2021/03/24 05:23:09;;;;;;;14.60;7.10;;;5.90;99.90;;;;;;5093619;28;20074;-38
2021/03/24 05:25:39;;;;;;;12.68;7.13;;;5.90;99.90;;;;;;5092937;28;20028;-37
2021/03/24 05:28:31;;;;;;;16.98;7.65;;;5.90;99.90;;;;;;5094007;28;20114;-37
2021/03/24 05:31:12;;;;;;;15.35;8.00;;;5.90;99.90;;;;;;5093661;28;20069;-37
2021/03/24 05:33:42;;;;;;;16.08;7.53;;;5.90;99.90;;;;;;5093784;28;20044;-37
2021/03/24 05:36:10;;;;;;;17.65;8.23;;;5.90;99.90;;;;;;5092620;28;20027;-37
2021/03/24 05:38:44;;;;;;;12.63;7.88;;;5.90;99.90;;;;;;5093849;28;20043;-38
2021/03/24 05:41:22;;;;;;;14.13;8.13;;;6.00;99.90;;;;;;5092731;28;20028;-37
2021/03/24 05:44:05;;;;;;;15.90;8.02;;;6.00;99.90;;;;;;5093526;28;20052;-38
2021/03/24 05:47:08;;;;;;;14.85;7.97;;;6.00;99.90;;;;;;5093760;28;20032;-37
2021/03/24 05:50:11;;;;;;;17.58;8.95;;;6.00;99.90;;;;;;5093498;28;20196;-39
2021/03/24 05:53:00;;;;;;;15.75;9.25;;;6.10;99.90;;;;;;5073118;28;20130;-37
2021/03/24 05:55:49;;;;;;;14.45;9.13;;;6.10;99.90;;;;;;5072209;28;20039;-37
2021/03/24 05:58:23;;;;;;;13.38;8.48;;;6.10;99.90;;;;;;5075797;28;20019;-36
2021/03/24 06:01:00;;;;;;;15.10;8.40;;;6.20;99.90;;;;;;5093117;28;20035;-37
2021/03/24 06:03:48;;;;;;;15.90;8.73;;;6.30;99.90;;;;;;5093560;28;20024;-37
2021/03/24 06:06:56;;;;;;;17.80;9.93;;;6.30;99.90;;;;;;5093658;28;20021;-37
2021/03/24 06:09:49;;;;;;;21.52;10.88;;;6.40;99.90;;;;;;5092521;28;20077;-37
2021/03/24 06:12:51;;;;;;;17.95;9.65;;;6.40;99.90;;;;;;5073245;28;20029;-37
2021/03/24 06:15:54;;;;;;;18.60;10.38;;;6.50;99.90;;;;;;5073329;28;20025;-37
2021/03/24 06:18:44;;;;;;;13.82;8.00;;;6.60;99.90;;;;;;5073313;28;20371;-38
2021/03/24 06:21:20;;;;;;;14.60;8.95;;;6.70;99.90;;;;;;5073033;28;20078;-39
2021/03/24 06:24:04;;;;;;;16.98;9.10;;;6.80;99.90;;;;;;5072933;28;20512;-37
2021/03/24 06:26:57;;;;;;;14.13;8.65;;;6.90;99.90;;;;;;5072903;28;20062;-37
2021/03/24 06:29:41;;;;;;;18.90;10.15;;;7.00;99.90;;;;;;5072903;28;20036;-37
2021/03/24 06:32:44;;;;;;;16.88;8.65;;;7.20;99.90;;;;;;5072213;28;20032;-38
2021/03/24 06:35:26;;;;;;;14.13;8.95;;;7.30;99.90;;;;;;5072924;28;20032;-38
2021/03/24 06:38:05;;;;;;;18.05;10.05;;;7.40;99.90;;;;;;5073004;28;20463;-37
2021/03/24 06:40:43;;;;;;;12.68;7.88;;;7.40;99.90;;;;;;5071606;28;20442;-37
2021/03/24 06:43:26;;;;;;;16.48;10.27;;;7.60;99.90;;;;;;5072721;28;20169;-38
2021/03/24 06:46:04;;;;;;;16.67;9.25;;;7.60;99.90;;;;;;5072630;28;20024;-37
2021/03/24 06:49:04;;;;;;;15.48;9.25;;;7.70;99.90;;;;;;5072865;28;20016;-38
2021/03/24 06:51:35;;;;;;;15.05;8.38;;;7.80;99.90;;;;;;5078870;28;20043;-37
2021/03/24 06:54:34;;;;;;;15.90;9.02;;;7.90;99.90;;;;;;5112832;28;20024;-38
2021/03/24 06:57:24;;;;;;;17.92;9.77;;;8.00;99.80;;;;;;5113323;28;20019;-37
2021/03/24 07:00:17;;;;;;;19.27;9.95;;;8.10;99.50;;;;;;5112974;28;20012;-37
2021/03/24 07:03:15;;;;;;;12.75;8.60;;;8.20;99.00;;;;;;5113197;28;20081;-37
2021/03/24 07:06:09;;;;;;;16.92;9.68;;;8.30;98.70;;;;;;5113177;28;20034;-37
2021/03/24 07:08:56;;;;;;;18.23;10.20;;;8.40;98.10;;;;;;5113215;28;20357;-38
2021/03/24 07:11:29;;;;;;;19.27;11.07;;;8.60;97.50;;;;;;5111648;28;20035;-37
2021/03/24 07:14:22;;;;;;;18.27;10.93;;;8.70;97.10;;;;;;5113179;28;20031;-38
2021/03/24 07:16:52;;;;;;;22.35;10.77;;;8.90;96.50;;;;;;5113043;28;20074;-39
2021/03/24 07:19:27;;;;;;;20.20;11.00;;;9.10;96.20;;;;;;5112831;28;20042;-37
2021/03/24 07:22:18;;;;;;;18.45;10.75;;;9.20;95.90;;;;;;5112751;28;20020;-37
2021/03/24 07:25:00;;;;;;;17.13;11.02;;;9.40;95.30;;;;;;5112041;28;20032;-37
2021/03/24 07:27:56;;;;;;;17.48;10.10;;;9.50;94.80;;;;;;5112915;28;20474;-37
2021/03/24 07:30:37;;;;;;;17.52;11.25;;;9.70;94.00;;;;;;5112755;28;20039;-38
2021/03/24 07:33:19;;;;;;;26.88;14.73;;;9.80;93.80;;;;;;5112972;28;20571;-37
2021/03/24 07:36:20;;;;;;;21.83;11.98;;;10.00;93.20;;;;;;5112703;28;20028;-37
2021/03/24 07:38:48;;;;;;;21.33;11.80;;;10.10;92.00;;;;;;5113042;28;20020;-37
2021/03/24 07:41:16;;;;;;;19.92;12.75;;;10.10;92.60;;;;;;5111687;28;20404;-37
2021/03/24 07:43:48;;;;;;;20.73;12.30;;;10.10;92.50;;;;;;5115651;28;20376;-38
2021/03/24 07:46:51;;;;;;;18.70;11.75;;;10.20;91.80;;;;;;5116729;28;20471;-38
2021/03/24 07:49:38;;;;;;;20.10;10.98;;;10.30;91.70;;;;;;5116591;28;20459;-38
2021/03/24 07:52:24;;;;;;;21.65;14.07;;;10.40;91.90;;;;;;5116507;28;20019;-38
2021/03/24 07:55:11;;;;;;;27.23;15.63;;;10.40;91.50;;;;;;5115612;28;20525;-38
2021/03/24 07:58:20;;;;;;;21.80;12.90;;;10.40;91.30;;;;;;5116728;28;20066;-37
2021/03/24 08:00:58;;;;;;;20.85;13.43;;;10.40;90.10;;;;;;5116249;28;20497;-37
2021/03/24 08:03:42;;;;;;;23.80;13.88;;;10.40;91.10;;;;;;5116413;28;20031;-37
2021/03/24 08:06:38;;;;;;;21.17;13.30;;;10.40;90.70;;;;;;5116362;28;20024;-38
2021/03/24 08:09:31;;;;;;;23.58;13.57;;;10.50;89.90;;;;;;5115586;28;20223;-39
2021/03/24 08:12:30;;;;;;;16.35;10.77;;;10.50;90.60;;;;;;5075396;28;20391;-37
2021/03/24 08:15:08;;;;;;;24.05;13.90;;;10.50;90.40;;;;;;5075541;28;20035;-38
2021/03/24 08:18:03;;;;;;;22.67;13.27;;;10.60;90.60;;;;;;5075497;28;20100;-38
2021/03/24 08:20:52;;;;;;;25.17;12.93;;;10.60;90.00;;;;;;5075206;28;20025;-37
2021/03/24 08:23:39;;;;;;;24.90;14.13;;;10.80;88.70;;;;;;5066311;28;20044;-37
2021/03/24 08:26:33;;;;;;;27.55;16.05;;;10.80;89.70;;;;;;5074416;28;20040;-37
2021/03/24 08:29:08;;;;;;;24.38;14.48;;;11.00;89.10;;;;;;5062380;28;20491;-37
2021/03/24 08:31:42;;;;;;;21.90;13.93;;;11.10;88.60;;;;;;5075228;28;20070;-36
2021/03/24 08:34:38;;;;;;;24.30;14.20;;;11.30;86.60;;;;;;5075168;28;20430;-37
2021/03/24 08:37:15;;;;;;;25.05;14.15;;;11.50;87.00;;;;;;5075156;28;20050;-37
2021/03/24 08:40:14;;;;;;;28.80;16.90;;;11.70;86.50;;;;;;5074263;28;20020;-37
2021/03/24 08:42:45;;;;;;;25.60;13.88;;;11.80;83.90;;;;;;5074706;28;20518;-37
2021/03/24 08:45:26;;;;;;;27.13;15.85;;;12.10;84.70;;;;;;5075088;28;20064;-37
2021/03/24 08:47:59;;;;;;;25.40;14.73;;;12.30;83.40;;;;;;5074964;28;20040;-38
2021/03/24 08:50:52;;;;;;;23.00;14.82;;;12.60;83.10;;;;;;5079290;28;20042;-37
2021/03/24 08:53:46;;;;;;;30.00;18.05;;;12.80;81.80;;;;;;5109068;28;20471;-39
2021/03/24 08:56:35;;;;;;;27.98;15.95;;;13.10;79.80;;;;;;5114229;28;20402;-37
2021/03/24 08:59:24;;;;;;;29.38;16.63;;;13.30;80.20;;;;;;5115383;28;20027;-38
2021/03/24 09:02:20;;;;;;;28.88;16.52;;;13.50;80.60;;;;;;5115391;28;20501;-37
2021/03/24 09:05:20;;;;;;;31.25;18.60;;;13.50;78.10;;;;;;5115350;28;20020;-37
2021/03/24 09:08:14;;;;;;;25.02;16.45;;;13.60;78.80;;;;;;5083368;28;20035;-37
2021/03/24 09:11:00;;;;;;;29.20;18.20;;;13.70;79.20;;;;;;5114179;28;20016;-38
2021/03/24 09:13:26;;;;;;;;;;;13.80;77.90;;;;;;5115464;28;20024;-37
2021/03/24 09:16:30;;;;;;;25.67;15.27;;;13.90;73.10;;;;;;5115567;28;20256;-37
2021/03/24 09:19:05;;;;;;;26.77;17.20;;;13.90;76.30;;;;;;5115084;28;20047;-37
2021/03/24 09:21:59;;;;;;;28.48;19.25;;;14.00;77.70;;;;;;5114394;28;20032;-37
2021/03/24 09:24:50;;;;;;;30.67;18.92;;;14.10;77.80;;;;;;5086209;28;20092;-37
2021/03/24 09:27:53;;;;;;;32.67;20.80;;;14.10;76.80;;;;;;5073843;28;20467;-38
2021/03/24 09:30:34;;;;;;;25.45;17.00;;;14.10;75.10;;;;;;5073917;28;20028;-37
2021/03/24 09:33:26;;;;;;;32.47;21.58;;;14.10;76.40;;;;;;5073757;28;20082;-37
2021/03/24 09:36:29;;;;;;;30.50;19.98;;;14.10;72.10;;;;;;5073950;28;20386;-37
2021/03/24 09:38:57;;;;;;;32.33;20.88;;;14.10;74.40;;;;;;5073096;28;20036;-37
2021/03/24 09:41:40;;;;;;;34.28;22.17;;;14.00;76.60;;;;;;5072879;28;20040;-37
2021/03/24 09:44:26;;;;;;;39.60;23.67;;;13.80;76.30;;;;;;5073292;28;20052;-37
2021/03/24 09:46:54;;;;;;;33.72;21.00;;;13.70;76.10;;;;;;5073647;28;20020;-37
2021/03/24 09:49:30;;;;;;;38.72;24.42;;;13.50;75.90;;;;;;5072118;28;20029;-37
2021/03/24 09:52:29;;;;;;;36.75;22.88;;;13.40;76.00;;;;;;5102966;28;20139;-37
2021/03/24 09:55:04;;;;;;;30.95;20.73;;;13.40;73.30;;;;;;5112799;28;20394;-37
2021/03/24 09:57:55;;;;;;;39.60;24.92;;;13.40;74.20;;;;;;5102045;28;20032;-37
2021/03/24 10:00:24;;;;;;;32.10;21.95;;;13.30;74.50;;;;;;5063022;28;20054;-37
2021/03/24 10:03:03;;;;;;;32.70;20.75;;;13.40;75.30;;;;;;5091840;28;20031;-37
2021/03/24 10:05:39;;;;;;;36.40;22.67;;;13.50;74.40;;;;;;5093382;28;20031;-39
2021/03/24 10:08:16;;;;;;;34.58;20.67;;;13.60;73.30;;;;;;5089062;28;20028;-38
2021/03/24 10:10:44;;;;;;;33.53;21.38;;;13.70;73.70;;;;;;5091774;28;20024;-38
2021/03/24 10:13:21;;;;;;;35.67;22.38;;;13.80;73.00;;;;;;5092598;28;20027;-39
2021/03/24 10:15:58;;;;;;;35.47;23.08;;;13.80;72.00;;;;;;5093344;28;20016;-43
2021/03/24 10:18:38;;;;;;;38.13;22.52;;;13.80;72.00;;;;;;5092845;28;20016;-40
2021/03/24 10:21:14;;;;;;;41.65;25.13;;;13.80;71.30;;;;;;5093155;28;20391;-39
2021/03/24 10:23:53;;;;;;;45.17;27.17;;;13.70;70.40;;;;;;5092725;28;20024;-39
2021/03/24 10:26:31;;;;;;;36.45;23.30;;;13.60;67.90;;;;;;5091523;28;20062;-39
2021/03/24 10:29:10;;;;;;;37.50;23.08;;;13.50;69.80;;;;;;5092436;28;20442;-38
2021/03/24 10:31:39;;;;;;;40.67;24.95;;;13.40;69.00;;;;;;5092603;28;20103;-39
2021/03/24 10:34:19;;;;;;;42.85;26.73;;;13.30;70.00;;;;;;5093024;28;20012;-38
2021/03/24 10:36:58;;;;;;;42.97;25.35;;;13.30;67.70;;;;;;5093017;28;20107;-39
2021/03/24 10:39:37;;;;;;;35.72;21.55;;;13.20;68.40;;;;;;5091661;28;20024;-39
2021/03/24 10:42:03;;;;;;;43.08;25.20;;;13.10;68.30;;;;;;5092652;28;20024;-40
2021/03/24 10:44:43;;;;;;;43.15;25.35;;;13.20;69.50;;;;;;5092335;28;20050;-38
2021/03/24 10:47:29;;;;;;;36.22;22.98;;;13.20;68.70;;;;;;5092482;28;20031;-38
2021/03/24 10:50:24;;;;;;;37.78;22.35;;;13.30;68.30;;;;;;5092450;28;20464;-39
2021/03/24 10:52:58;;;;;;;35.35;22.15;;;13.30;67.60;;;;;;5072245;28;20044;-38
2021/03/24 10:55:25;;;;;;;38.15;22.90;;;13.40;68.70;;;;;;5071337;28;20059;-39
2021/03/24 10:57:58;;;;;;;47.50;26.15;;;13.50;68.60;;;;;;5072426;28;20079;-39
2021/03/24 11:00:33;;;;;;;38.17;23.80;;;13.50;68.10;;;;;;5084259;28;20020;-39
2021/03/24 11:03:22;;;;;;;41.33;23.00;;;13.50;67.60;;;;;;5092078;28;20027;-38
2021/03/24 11:05:54;;;;;;;41.83;23.65;;;13.50;67.70;;;;;;5092633;28;20036;-38
2021/03/24 11:08:31;;;;;;;38.90;23.08;;;13.40;68.30;;;;;;5092106;28;20024;-38
2021/03/24 11:11:19;;;;;;;34.63;21.58;;;13.50;68.20;;;;;;5091435;28;20107;-39
2021/03/24 11:13:56;;;;;;;38.00;22.70;;;13.60;67.00;;;;;;5092451;28;20025;-39
2021/03/24 11:16:27;;;;;;;39.72;23.38;;;13.60;67.40;;;;;;5091663;28;20020;-39
2021/03/24 11:19:16;;;;;;;44.58;26.25;;;13.60;66.80;;;;;;5097991;28;20031;-39
2021/03/24 11:22:15;;;;;;;42.80;25.77;;;13.70;66.30;;;;;;5093433;28;20038;-39
2021/03/24 11:24:48;;;;;;;40.95;23.25;;;13.70;66.60;;;;;;5098093;28;20031;-39
2021/03/24 11:27:35;;;;;;;31.10;18.88;;;13.70;66.70;;;;;;5098821;28;20059;-39
2021/03/24 11:30:11;;;;;;;31.65;19.90;;;13.80;66.80;;;;;;5099155;28;20157;-46
2021/03/24 11:32:55;;;;;;;34.63;22.15;;;14.00;66.70;;;;;;5098638;28;20028;-44
2021/03/24 11:35:38;;;;;;;37.80;22.65;;;14.20;66.40;;;;;;5098934;28;20024;-45
2021/03/24 11:38:34;;;;;;;33.15;20.58;;;14.30;66.10;;;;;;5098851;28;20095;-45
2021/03/24 11:41:02;;;;;;;37.10;21.52;;;14.30;65.00;;;;;;5097849;28;20531;-43
2021/03/24 11:43:34;;;;;;;36.25;22.45;;;14.30;66.10;;;;;;5098537;28;20044;-41
2021/03/24 11:46:34;;;;;;;40.92;23.80;;;14.20;66.20;;;;;;5098880;28;20032;-42
2021/03/24 11:49:12;;;;;;;33.28;22.02;;;14.10;65.50;;;;;;5099044;28;20028;-41
2021/03/24 11:51:43;;;;;;;38.88;22.48;;;14.00;66.40;;;;;;5111370;28;20028;-41
2021/03/24 11:54:46;;;;;;;37.95;22.52;;;13.90;65.60;;;;;;5118185;28;20027;-44
2021/03/24 11:57:31;;;;;;;37.85;22.35;;;13.90;65.70;;;;;;5119576;28;20031;-42
2021/03/24 12:00:22;;;;;;;31.70;19.25;;;14.00;66.20;;;;;;5119262;27;20020;-45
2021/03/24 12:03:31;;;;;;;36.13;21.33;;;14.00;65.70;;;;;;5119019;27;20110;-44
2021/03/24 12:06:02;;;;;;;35.92;21.27;;;14.10;65.70;;;;;;5119151;27;20024;-44
2021/03/24 12:08:50;;;;;;;38.20;23.40;;;14.10;66.20;;;;;;5119175;27;20130;-44
2021/03/24 12:11:24;;;;;;;44.00;27.05;;;14.00;65.40;;;;;;5118172;27;20023;-44
2021/03/24 12:14:01;;;;;;;40.25;22.73;;;14.00;65.70;;;;;;5119296;27;20020;-42
2021/03/24 12:16:27;;;;;;;40.55;24.73;;;14.00;65.90;;;;;;5119106;27;20031;-42
2021/03/24 12:18:54;;;;;;;39.15;25.42;;;14.10;65.90;;;;;;5119027;27;20381;-41
2021/03/24 12:21:34;;;;;;;37.03;23.65;;;14.10;65.10;;;;;;5119015;27;20035;-42
2021/03/24 12:24:02;;;;;;;33.38;21.73;;;14.20;64.50;;;;;;5118121;27;20079;-42
2021/03/24 12:26:33;;;;;;;30.65;19.45;;;14.30;64.70;;;;;;5119018;27;20106;-42
2021/03/24 12:29:24;;;;;;;37.72;23.92;;;14.50;65.00;;;;;;5116455;27;20060;-42
2021/03/24 12:32:07;;;;;;;33.47;20.10;;;14.60;63.90;;;;;;5115744;28;20111;-42
2021/03/24 12:34:43;;;;;;;28.35;17.80;;;14.80;62.70;;;;;;5115679;28;20065;-42
2021/03/24 12:37:30;;;;;;;36.70;21.02;;;14.90;63.50;;;;;;5115837;27;20027;-46
2021/03/24 12:40:09;;;;;;;27.20;17.27;;;15.10;62.60;;;;;;5114800;28;20028;-43
2021/03/24 12:42:35;;;;;;;29.60;19.48;;;15.10;63.10;;;;;;5131205;27;20031;-41
2021/03/24 12:45:03;;;;;;;28.45;18.92;;;15.00;62.90;;;;;;5115457;28;20050;-44
2021/03/24 12:47:38;;;;;;;29.75;18.55;;;14.80;63.10;;;;;;5115300;28;20024;-42
2021/03/24 12:50:16;;;;;;;29.55;16.95;;;14.80;63.30;;;;;;5115441;28;20061;-41
2021/03/24 12:53:01;;;;;;;25.60;16.63;;;14.80;62.30;;;;;;5086355;28;20063;-42
2021/03/24 12:55:27;;;;;;;33.20;21.48;;;14.90;63.00;;;;;;5094140;28;20095;-42
2021/03/24 12:57:54;;;;;;;37.55;21.42;;;14.80;62.30;;;;;;5095071;28;20107;-42
2021/03/24 13:01:11;;;;;;;26.35;17.02;;;14.70;62.70;;;;;;5094891;28;20063;-45
2021/03/24 13:04:14;;;;;;;24.35;15.65;;;14.40;62.30;;;;;;5075717;28;20042;-42
2021/03/24 13:06:59;;;;;;;26.35;15.98;;;14.20;63.80;;;;;;5094847;28;20036;-42
2021/03/24 13:09:45;;;;;;;36.22;20.30;;;14.10;64.30;;;;;;5093802;28;20035;-41
2021/03/24 13:12:18;;;;;;;;;;;13.90;64.60;;;;;;5074765;28;20172;-42
2021/03/24 13:15:17;;;;;;;36.25;20.92;;;13.60;63.80;;;;;;5074567;28;20279;-41
2021/03/24 13:17:55;;;;;;;31.00;20.35;;;13.40;64.80;;;;;;5074241;28;20027;-43
2021/03/24 13:20:21;;;;;;;27.88;17.70;;;13.30;64.80;;;;;;5074290;28;20025;-44
2021/03/24 13:22:58;;;;;;;28.15;19.45;;;13.20;65.80;;;;;;5074285;28;20108;-47
2021/03/24 13:25:34;;;;;;;35.90;21.17;;;13.10;66.10;;;;;;5073186;28;20474;-42
2021/03/24 13:28:30;;;;;;;33.50;19.83;;;13.00;66.20;;;;;;5074032;28;20293;-42
2021/03/24 13:31:32;;;;;;;31.83;17.33;;;13.00;66.20;;;;;;5093958;28;20073;-42
2021/03/24 13:34:15;;;;;;;34.92;20.50;;;12.90;66.40;;;;;;5094087;28;20356;-41
2021/03/24 13:36:59;;;;;;;31.92;18.50;;;12.90;66.20;;;;;;5093814;28;20137;-41